Menu Close Menu
Station Historical Data
Daily Summary for March 31, 2017 Units:  Metric    English   Both
« Previous Day
Next Day »
Daily Weekly Monthly Yearly Custom
  High: Low: Average:
Temperature: 21.7 °C 13.1 °C 16.9 °C
Dew Point: 14.1 °C 6.9 °C 10.5 °C
Humidity: 92% 42% 69%
Wind Speed: 3.2km/h 0km/h 0.5km/h
Wind Gust: 16.1km/h - -
Wind- - West
Pressure: 1013.8 hPa 1006.7 hPa -
Precipitation: 10.92 mm    
Historical Graphs
 
 
Tabular Data for March 31, 2017
Time Temperature Dew Point Pressure Wind Wind Speed Wind Gust Humidity Rainfall Rate (Hourly) solar Conditions
00:00 15.5 °C 13.9 °C 1008.4 hPa Calm     90% 0.51 mm 0.0 W/m2 RA
00:15 15.5 °C 13.8 °C 1008 hPa Calm     90% 0 mm 0.0 W/m2 SCT
00:30 15.4 °C 14 °C 1008.4 hPa Calm     91% 0 mm 0.0 W/m2 SCT
00:45 15.5 °C 14.1 °C 1008 hPa Calm   3.2 km/h 91% 0 mm 0.0 W/m2 SCT
01:00 15.4 °C 13.9 °C 1007.7 hPa Calm   1.6 km/h 91% 0 mm 0.0 W/m2 SCT
01:15 15.4 °C 13.8 °C 1007.7 hPa Calm   4.8 km/h 90% 0 mm 0.0 W/m2 SCT
01:30 15.4 °C 13.6 °C 1007.7 hPa Calm   1.6 km/h 89% 0 mm 0.0 W/m2 SCT
01:45 15.6 °C 13.6 °C 1007.7 hPa Calm   4.8 km/h 88% 0 mm 0.0 W/m2 SCT
02:00 15.6 °C 13.6 °C 1008 hPa Calm   4.8 km/h 88% 0.51 mm 0.0 W/m2 SCT
02:15 15.3 °C 13.7 °C 1008.4 hPa Calm   4.8 km/h 90% 2.29 mm 0.0 W/m2 SCT
02:30 15.3 °C 13.8 °C 1008.4 hPa Calm   4.8 km/h 91% 0.76 mm 0.0 W/m2 SCT
02:45 15.3 °C 13.8 °C 1008.4 hPa NNW 1.6 km/h 8 km/h 91% 2.54 mm 0.0 W/m2 RA
03:00 15.1 °C 13.7 °C 1007.7 hPa Calm   4.8 km/h 91% 2.54 mm 0.0 W/m2 RA
03:15 14.7 °C 13.2 °C 1007.3 hPa Calm   4.8 km/h 91% 2.03 mm 0.0 W/m2 SCT
03:30 14.7 °C 13.2 °C 1007.3 hPa Calm   1.6 km/h 91% 0 mm 0.0 W/m2 SCT
03:45 14.7 °C 13.2 °C 1007 hPa Calm     91% 0 mm 0.0 W/m2 SCT
04:00 14.7 °C 13.2 °C 1006.7 hPa Calm     91% 0 mm 0.0 W/m2 SCT
04:15 14.7 °C 13.2 °C 1006.7 hPa Calm     91% 0 mm 0.0 W/m2 SCT
04:30 14.7 °C 13.2 °C 1006.7 hPa Calm     91% 0 mm 0.0 W/m2 SCT
04:45 14.7 °C 13.2 °C 1006.7 hPa Calm     91% 0 mm 0.0 W/m2 SCT
05:00 14.7 °C 13.2 °C 1006.7 hPa Calm     91% 0 mm 0.0 W/m2 SCT
05:15 14.7 °C 13.2 °C 1006.7 hPa Calm     91% 0 mm 0.0 W/m2 SCT
05:30 14.7 °C 13.2 °C 1006.7 hPa Calm     91% 0 mm 0.0 W/m2 SCT
05:45 14.7 °C 13.2 °C 1006.7 hPa Calm     91% 0 mm 0.0 W/m2 SCT
06:00 14.7 °C 13.2 °C 1006.7 hPa Calm     91% 0 mm 0.0 W/m2 SCT
06:15 14.7 °C 13.2 °C 1006.7 hPa Calm     91% 0 mm 0.0 W/m2 SCT
06:30 14.7 °C 13.2 °C 1007 hPa Calm     91% 0 mm 0.0 W/m2 SCT
06:45 14.7 °C 13.2 °C 1007 hPa Calm     91% 0 mm 0.0 W/m2 SCT
07:00 14.7 °C 13.2 °C 1007 hPa Calm     91% 0 mm 0.0 W/m2 SCT
07:15 14.7 °C 13.2 °C 1007.3 hPa Calm     91% 0 mm 0.0 W/m2 SCT
07:30 14.7 °C 13.2 °C 1007.7 hPa Calm     91% 0 mm 0.0 W/m2 SCT
07:45 14.7 °C 13.2 °C 1007.7 hPa Calm     91% 0 mm 0.0 W/m2 SCT
08:00 14.7 °C 13.2 °C 1008 hPa Calm     91% 0 mm 0.0 W/m2 SCT
08:15 13.8 °C 12.5 °C 1008 hPa Calm     92% 0 mm 0.0 W/m2 SCT
08:30 13.7 °C 12.1 °C 1008.4 hPa Calm     90% 0 mm 0.0 W/m2 SCT
08:45 13.6 °C 11.6 °C 1008.4 hPa Calm   1.6 km/h 88% 0 mm 0.0 W/m2 SCT
09:00 13.6 °C 11.1 °C 1008.7 hPa Calm   1.6 km/h 85% 0 mm 0.0 W/m2 SCT
09:15 13.7 °C 10.9 °C 1008.7 hPa Calm   8 km/h 83% 0 mm 0.0 W/m2 SCT
09:30 14 °C 11.2 °C 1008.7 hPa Calm   4.8 km/h 83% 0 mm 0.0 W/m2 SCT
09:45 14.4 °C 11.1 °C 1009 hPa WSW 1.6 km/h 4.8 km/h 80% 0 mm 0.0 W/m2 SCT
10:00 15.2 °C 10.8 °C 1009 hPa NNW 1.6 km/h 8 km/h 75% 0 mm 0.0 W/m2 SCT
10:15 16 °C 10.9 °C 1009 hPa Calm   8 km/h 72% 0 mm 0.0 W/m2 SCT
10:30 16.9 °C 10.6 °C 1009 hPa Calm   9.7 km/h 66% 0 mm 0.0 W/m2 SCT
10:45 17.4 °C 10.1 °C 1009.4 hPa Calm   8 km/h 62% 0 mm 0.0 W/m2 SCT
11:00 18.1 °C 9.9 °C 1009.4 hPa Calm   8 km/h 59% 0 mm 0.0 W/m2 SCT
11:15 18.7 °C 10.8 °C 1009.4 hPa West 1.6 km/h 4.8 km/h 60% 0 mm 0.0 W/m2 SCT
11:30 18.4 °C 10.3 °C 1009.7 hPa WNW 1.6 km/h 8 km/h 59% 0 mm 0.0 W/m2 SCT
11:45 18.8 °C 9.8 °C 1010 hPa Calm   9.7 km/h 56% 0 mm 0.0 W/m2 SCT
12:00 19.2 °C 9.9 °C 1010 hPa Calm   8 km/h 55% 0 mm 0.0 W/m2 SCT
12:15 19.1 °C 9.3 °C 1010 hPa NW 1.6 km/h 8 km/h 53% 0 mm 0.0 W/m2 SCT
12:30 19.6 °C 10 °C 1010 hPa West 1.6 km/h 12.9 km/h 54% 0 mm 0.0 W/m2 SCT
12:45 20.7 °C 10.2 °C 1009.7 hPa WNW 1.6 km/h 12.9 km/h 51% 0 mm 0.0 W/m2 SCT
13:00 21.1 °C 9.3 °C 1009.7 hPa WNW 3.2 km/h 11.3 km/h 47% 0 mm 0.0 W/m2 SCT
13:15 20.1 °C 10.5 °C 1009.7 hPa WNW 1.6 km/h 8 km/h 54% 0 mm 0.0 W/m2 SCT
13:30 20.3 °C 9.2 °C 1010 hPa WSW 3.2 km/h 12.9 km/h 49% 0 mm 0.0 W/m2 SCT
13:45 21 °C 10.5 °C 1010 hPa NNW 1.6 km/h 9.7 km/h 51% 0 mm 0.0 W/m2 SCT
14:00 21 °C 9.2 °C 1010 hPa Calm   8 km/h 47% 0 mm 0.0 W/m2 SCT
14:15 20.5 °C 8.4 °C 1010 hPa WNW 1.6 km/h 9.7 km/h 46% 0 mm 0.0 W/m2 SCT
14:30 21.3 °C 8.2 °C 1009.7 hPa NW 1.6 km/h 9.7 km/h 43% 0 mm 0.0 W/m2 SCT
14:45 21.7 °C 8.2 °C 1009.7 hPa NNE 3.2 km/h 8 km/h 42% 0 mm 0.0 W/m2 SCT
15:00 21.6 °C 9.7 °C 1009.4 hPa Calm   11.3 km/h 47% 0 mm 0.0 W/m2 SCT
15:15 21.4 °C 7.9 °C 1009.4 hPa Calm   9.7 km/h 42% 0 mm 0.0 W/m2 SCT
15:30 21.1 °C 8 °C 1009.4 hPa Calm   11.3 km/h 43% 0 mm 0.0 W/m2 SCT
15:45 20.3 °C 8.9 °C 1009.4 hPa NNW 1.6 km/h 14.5 km/h 48% 0 mm 0.0 W/m2 SCT
16:00 20.6 °C 7.9 °C 1009.4 hPa South 3.2 km/h 9.7 km/h 44% 0 mm 0.0 W/m2 SCT
16:15 20.7 °C 8.4 °C 1009.4 hPa North 1.6 km/h 11.3 km/h 45% 0 mm 0.0 W/m2 SCT
16:30 21 °C 8.3 °C 1009.7 hPa SSW 1.6 km/h 8 km/h 44% 0 mm 0.0 W/m2 SCT
16:45 21.1 °C 7.7 °C 1009.7 hPa NE 3.2 km/h 8 km/h 42% 0 mm 0.0 W/m2 SCT
17:00 20.8 °C 7.4 °C 1009.7 hPa WNW 1.6 km/h 8 km/h 42% 0 mm 0.0 W/m2 SCT
17:15 20.8 °C 7.8 °C 1009.7 hPa ENE 3.2 km/h 8 km/h 43% 0 mm 0.0 W/m2 SCT
17:30 20.5 °C 7.5 °C 1009.7 hPa Calm   9.7 km/h 43% 0 mm 0.0 W/m2 SCT
17:45 20.2 °C 7.2 °C 1010 hPa Calm   12.9 km/h 43% 0 mm 0.0 W/m2 SCT
18:00 20 °C 7.4 °C 1009.7 hPa NW 1.6 km/h 8 km/h 44% 0 mm 0.0 W/m2 SCT
18:15 19.8 °C 6.9 °C 1010 hPa SSE 1.6 km/h 16.1 km/h 43% 0 mm 0.0 W/m2 SCT
18:30 19.7 °C 7.4 °C 1010 hPa Calm   8 km/h 45% 0 mm 0.0 W/m2 SCT
18:45 19.2 °C 7.6 °C 1010.4 hPa Calm   8 km/h 47% 0 mm 0.0 W/m2 SCT
19:00 18.9 °C 7.7 °C 1010.4 hPa Calm   3.2 km/h 48% 0 mm 0.0 W/m2 SCT
19:15 18.7 °C 7.4 °C 1010.7 hPa Calm   8 km/h 48% 0 mm 0.0 W/m2 SCT
19:30 18.3 °C 7.4 °C 1010.7 hPa NNW 1.6 km/h 4.8 km/h 49% 0 mm 0.0 W/m2 SCT
19:45 17.9 °C 7.7 °C 1011.1 hPa Calm   3.2 km/h 51% 0 mm 0.0 W/m2 SCT
20:00 17.5 °C 7.8 °C 1011.1 hPa Calm     53% 0 mm 0.0 W/m2 SCT
20:15 17.1 °C 7.9 °C 1011.4 hPa Calm   1.6 km/h 55% 0 mm 0.0 W/m2 SCT
20:30 16.8 °C 7.4 °C 1011.7 hPa Calm   1.6 km/h 54% 0 mm 0.0 W/m2 SCT
20:45 16.5 °C 7.7 °C 1011.7 hPa Calm     56% 0 mm 0.0 W/m2 SCT
21:00 16.3 °C 8 °C 1012.1 hPa Calm     58% 0 mm 0.0 W/m2 SCT
21:15 15.9 °C 7.9 °C 1012.1 hPa Calm     59% 0 mm 0.0 W/m2 SCT
21:30 15.7 °C 8 °C 1012.4 hPa Calm   3.2 km/h 60% 0 mm 0.0 W/m2 SCT
21:45 15.3 °C 8.3 °C 1012.8 hPa Calm   1.6 km/h 63% 0 mm 0.0 W/m2 SCT
22:00 15 °C 8 °C 1012.8 hPa Calm     63% 0 mm 0.0 W/m2 SCT
22:15 14.7 °C 8.4 °C 1013.1 hPa Calm   1.6 km/h 66% 0 mm 0.0 W/m2 SCT
22:30 14.3 °C 8.3 °C 1013.1 hPa Calm   1.6 km/h 67% 0 mm 0.0 W/m2 SCT
22:45 14.1 °C 8.2 °C 1013.4 hPa Calm     68% 0 mm 0.0 W/m2 SCT
23:00 13.8 °C 8.2 °C 1013.4 hPa Calm     69% 0 mm 0.0 W/m2 SCT
23:15 13.6 °C 8.2 °C 1013.4 hPa Calm     70% 0 mm 0.0 W/m2 SCT
23:30 13.4 °C 8.4 °C 1013.8 hPa Calm     72% 0 mm 0.0 W/m2 SCT
23:45 13.1 °C 8.2 °C 1013.8 hPa Calm     72% 0 mm 0.0 W/m2 SCT
Piedmont Bend
Compliments of Weather Underground - 4 mb